createdAt,value
2019-03-21T00:00:58.028Z,-0.40
2019-03-21T00:03:24.199Z,-0.50
2019-03-21T00:05:50.354Z,-0.60
2019-03-21T00:08:16.517Z,-0.60
2019-03-21T00:10:46.515Z,-0.60
2019-03-21T00:13:12.701Z,-0.50
2019-03-21T00:15:45.448Z,-0.50
2019-03-21T00:18:14.000Z,-0.50
2019-03-21T00:20:40.169Z,-0.50
2019-03-21T00:23:06.328Z,-0.50
2019-03-21T00:25:32.505Z,-0.50
2019-03-21T00:27:58.658Z,-0.50
2019-03-21T00:30:26.042Z,-0.50
2019-03-21T00:32:53.741Z,-0.50
2019-03-21T00:35:19.899Z,-0.60
2019-03-21T00:37:46.555Z,-0.60
2019-03-21T00:40:19.333Z,-0.60
2019-03-21T00:42:46.532Z,-0.60
2019-03-21T00:45:14.986Z,-0.80
2019-03-21T00:47:41.155Z,-0.80
2019-03-21T00:50:10.913Z,-0.80
2019-03-21T00:52:37.076Z,-0.70
2019-03-21T00:55:07.035Z,-0.70
2019-03-21T00:57:33.212Z,-0.70
2019-03-21T00:59:59.359Z,-0.90
2019-03-21T01:02:25.532Z,-1.00
2019-03-21T01:04:51.834Z,-1.00
2019-03-21T01:07:18.074Z,-1.10
2019-03-21T01:09:44.228Z,-1.10
2019-03-21T01:12:10.399Z,-1.10
2019-03-21T01:14:36.577Z,-1.10
2019-03-21T01:17:02.735Z,-1.10
2019-03-21T01:19:30.020Z,-1.10
2019-03-21T01:21:56.183Z,-1.10
2019-03-21T01:24:22.343Z,-1.20
2019-03-21T01:26:48.501Z,-1.30
2019-03-21T01:29:14.676Z,-1.20
2019-03-21T01:31:40.833Z,-1.20
2019-03-21T01:34:07.029Z,-1.10
2019-03-21T01:36:35.410Z,-1.00
2019-03-21T01:39:01.579Z,-1.10
2019-03-21T01:41:29.641Z,-1.10
2019-03-21T01:43:55.824Z,-1.20
2019-03-21T01:46:24.376Z,-1.20
2019-03-21T01:48:50.539Z,-1.30
2019-03-21T01:51:16.698Z,-1.30
2019-03-21T01:53:42.870Z,-1.40
2019-03-21T01:56:09.023Z,-1.40
2019-03-21T01:58:35.206Z,-1.40
2019-03-21T02:01:01.351Z,-1.40
2019-03-21T02:03:27.507Z,-1.40
2019-03-21T02:05:53.688Z,-1.30
2019-03-21T02:08:19.868Z,-1.20
2019-03-21T02:10:46.052Z,-1.30
2019-03-21T02:13:12.230Z,-1.30
2019-03-21T02:15:38.424Z,-1.30
2019-03-21T02:18:04.799Z,-1.30
2019-03-21T02:20:30.974Z,-1.30
2019-03-21T02:22:57.154Z,-1.40
2019-03-21T02:25:26.439Z,-1.50
2019-03-21T02:27:52.967Z,-1.50
2019-03-21T02:30:28.241Z,-1.50
2019-03-21T02:33:14.966Z,-1.50
2019-03-21T02:35:42.864Z,-1.60
2019-03-21T02:38:09.012Z,-1.60
2019-03-21T02:40:35.244Z,-1.70
2019-03-21T02:43:01.504Z,-1.70
2019-03-21T02:45:27.676Z,-1.70
2019-03-21T02:47:53.835Z,-1.80
2019-03-21T02:50:26.087Z,-1.90
2019-03-21T02:52:52.266Z,-1.90
2019-03-21T02:55:18.976Z,-1.90
2019-03-21T02:57:45.143Z,-2.00
2019-03-21T03:00:14.925Z,-2.00
2019-03-21T03:02:41.072Z,-1.90
2019-03-21T03:05:13.865Z,-2.00
2019-03-21T03:07:40.012Z,-2.00
2019-03-21T03:10:11.912Z,-2.10
2019-03-21T03:12:38.067Z,-2.00
2019-03-21T03:15:21.385Z,-2.10
2019-03-21T03:17:36.129Z,-2.10
2019-03-21T03:20:09.252Z,-2.00
2019-03-21T03:22:36.528Z,-2.10
2019-03-21T03:25:06.390Z,-2.10
2019-03-21T03:27:32.621Z,-2.00
2019-03-21T03:29:59.872Z,-2.00
2019-03-21T03:32:26.201Z,-2.10
2019-03-21T03:34:52.341Z,-2.30
2019-03-21T03:37:18.564Z,-2.30
2019-03-21T03:39:44.719Z,-2.30
2019-03-21T03:42:11.091Z,-2.30
2019-03-21T03:44:37.264Z,-2.30
2019-03-21T03:47:03.464Z,-2.20
2019-03-21T03:49:29.624Z,-2.30
2019-03-21T03:51:57.025Z,-2.40
2019-03-21T03:54:23.188Z,-2.30
2019-03-21T03:56:49.361Z,-2.30
2019-03-21T03:59:15.544Z,-2.30
2019-03-21T04:01:41.908Z,-2.30
2019-03-21T04:04:08.067Z,-2.20
2019-03-21T04:06:34.244Z,-2.40
2019-03-21T04:09:00.640Z,-2.50
2019-03-21T04:11:26.995Z,-2.40
2019-03-21T04:13:54.281Z,-2.40
2019-03-21T04:16:20.465Z,-2.40
2019-03-21T04:18:46.622Z,-2.30
2019-03-21T04:21:14.741Z,-2.40
2019-03-21T04:23:40.938Z,-2.50
2019-03-21T04:26:13.377Z,-2.60
2019-03-21T04:28:41.572Z,-2.60
2019-03-21T04:31:07.730Z,-2.50
2019-03-21T04:33:33.897Z,-2.50
2019-03-21T04:36:00.095Z,-2.50
2019-03-21T04:38:26.245Z,-2.40
2019-03-21T04:40:52.400Z,-2.40
2019-03-21T04:43:18.576Z,-2.40
2019-03-21T04:45:44.724Z,-2.50
2019-03-21T04:48:10.898Z,-2.60
2019-03-21T04:50:38.571Z,-2.60
2019-03-21T04:53:04.720Z,-2.70
2019-03-21T04:55:30.932Z,-2.80
2019-03-21T04:57:57.181Z,-2.70
2019-03-21T05:00:27.157Z,-2.80
2019-03-21T05:02:56.047Z,-2.70
2019-03-21T05:05:22.201Z,-2.70
2019-03-21T05:07:48.359Z,-2.60
2019-03-21T05:10:15.720Z,-2.60
2019-03-21T05:12:41.925Z,-2.70
2019-03-21T05:15:11.176Z,-2.80
2019-03-21T05:17:37.342Z,-2.80
2019-03-21T05:20:15.447Z,-2.80
2019-03-21T05:22:41.624Z,-2.70
2019-03-21T05:25:09.893Z,-2.70
2019-03-21T05:27:37.191Z,-2.70
2019-03-21T05:30:15.601Z,-2.70
2019-03-21T05:32:41.759Z,-2.70
2019-03-21T05:35:08.428Z,-2.60
2019-03-21T05:37:34.603Z,-2.60
2019-03-21T05:40:00.769Z,-2.60
2019-03-21T05:42:26.930Z,-2.40
2019-03-21T05:44:53.102Z,-2.30
2019-03-21T05:47:19.279Z,-2.10
2019-03-21T05:49:45.749Z,-1.90
2019-03-21T05:52:11.923Z,-1.60
2019-03-21T05:54:38.323Z,-1.30
2019-03-21T05:57:04.560Z,-0.90
2019-03-21T05:59:30.773Z,-0.60
2019-03-21T06:01:56.940Z,-0.10
2019-03-21T06:04:23.123Z,0.60
2019-03-21T06:09:40.884Z,2.70
2019-03-21T06:12:07.204Z,3.80
2019-03-21T06:14:46.631Z,4.50
2019-03-21T06:17:12.830Z,5.40
2019-03-21T06:20:00.445Z,6.00
2019-03-21T06:22:33.247Z,6.40
2019-03-21T06:25:03.560Z,7.20
2019-03-21T06:27:29.836Z,7.30
2019-03-21T06:29:56.286Z,8.00
2019-03-21T06:32:23.900Z,8.30
2019-03-21T06:34:50.100Z,8.00
2019-03-21T06:37:16.336Z,7.70
2019-03-21T06:39:42.504Z,7.10
2019-03-21T06:42:08.762Z,7.60
2019-03-21T06:44:35.010Z,7.40
2019-03-21T06:47:01.188Z,6.60
2019-03-21T06:49:27.553Z,5.80
2019-03-21T06:51:53.755Z,5.50
2019-03-21T06:54:19.917Z,5.20
2019-03-21T06:56:46.085Z,5.50
2019-03-21T06:59:12.286Z,5.40
2019-03-21T07:01:38.500Z,5.50
2019-03-21T07:04:07.322Z,5.90
2019-03-21T07:06:33.861Z,5.60
2019-03-21T07:09:00.026Z,6.50
2019-03-21T07:11:26.205Z,7.60
2019-03-21T07:13:52.375Z,8.70
2019-03-21T07:16:18.575Z,10.00
2019-03-21T07:18:44.746Z,10.50
2019-03-21T07:21:12.352Z,11.70
2019-03-21T07:23:38.531Z,11.90
2019-03-21T07:26:06.680Z,12.00
2019-03-21T07:28:32.811Z,11.70
2019-03-21T07:31:00.435Z,13.40
2019-03-21T07:33:26.601Z,14.30
2019-03-21T07:35:52.768Z,14.70
2019-03-21T07:38:18.983Z,15.10
2019-03-21T07:40:45.149Z,15.10
2019-03-21T07:43:12.440Z,14.80
2019-03-21T07:45:38.640Z,16.10
2019-03-21T07:48:05.406Z,14.90
2019-03-21T07:50:31.708Z,15.00
2019-03-21T07:52:57.968Z,14.40
2019-03-21T07:55:24.132Z,15.00
2019-03-21T07:57:50.327Z,15.00
2019-03-21T08:00:17.516Z,15.10
2019-03-21T08:02:43.960Z,15.80
2019-03-21T08:05:12.098Z,17.10
2019-03-21T08:07:38.273Z,17.00
2019-03-21T08:10:07.398Z,16.30
2019-03-21T08:12:33.570Z,15.30
2019-03-21T08:14:59.752Z,15.00
2019-03-21T08:17:25.961Z,15.60
2019-03-21T08:19:52.136Z,14.60
2019-03-21T08:22:18.345Z,15.20
2019-03-21T08:24:46.607Z,15.30
2019-03-21T08:27:12.827Z,15.40
2019-03-21T08:29:39.041Z,14.90
2019-03-21T08:32:05.232Z,15.00
2019-03-21T08:34:31.398Z,14.30
2019-03-21T08:36:57.698Z,14.10
2019-03-21T08:39:23.880Z,14.40
2019-03-21T08:41:50.257Z,13.70
2019-03-21T08:44:16.427Z,15.20
2019-03-21T08:46:42.612Z,14.70
2019-03-21T08:49:08.803Z,14.70
2019-03-21T08:51:35.011Z,14.70
2019-03-21T08:54:01.229Z,15.50
2019-03-21T08:56:27.407Z,15.40
2019-03-21T08:58:53.794Z,15.50
2019-03-21T09:01:19.989Z,14.90
2019-03-21T09:03:46.424Z,16.00
2019-03-21T09:06:12.600Z,16.20
2019-03-21T09:08:38.920Z,15.80
2019-03-21T09:11:05.088Z,15.90
2019-03-21T09:13:31.260Z,16.30
2019-03-21T09:15:57.489Z,16.90
2019-03-21T09:18:23.708Z,16.60
2019-03-21T09:20:49.867Z,17.00
2019-03-21T09:23:16.055Z,17.60
2019-03-21T09:25:42.266Z,17.50
2019-03-21T09:28:08.423Z,16.80
2019-03-21T09:30:34.634Z,17.30
2019-03-21T09:33:00.813Z,16.50
2019-03-21T09:35:27.277Z,16.00
2019-03-21T09:37:53.585Z,17.00
2019-03-21T09:40:19.784Z,17.60
2019-03-21T09:42:45.952Z,17.60
2019-03-21T09:45:12.353Z,16.20
2019-03-21T09:47:38.521Z,15.80
2019-03-21T09:50:06.925Z,16.20
2019-03-21T09:52:33.117Z,16.80
2019-03-21T09:54:59.359Z,16.50
2019-03-21T09:57:25.566Z,17.60
2019-03-21T09:59:51.744Z,18.90
2019-03-21T10:02:17.949Z,18.10
2019-03-21T10:04:44.141Z,18.00
2019-03-21T10:07:10.312Z,18.60
2019-03-21T10:09:36.526Z,17.10
2019-03-21T10:12:03.169Z,18.50
2019-03-21T10:14:29.463Z,17.80
2019-03-21T10:16:55.762Z,18.60
2019-03-21T10:19:21.917Z,18.70
2019-03-21T10:21:48.115Z,18.80
2019-03-21T10:24:16.542Z,20.20
2019-03-21T10:26:42.814Z,19.70
2019-03-21T10:29:09.024Z,19.40
2019-03-21T10:31:35.276Z,19.60
2019-03-21T10:34:02.884Z,19.00
2019-03-21T10:36:29.070Z,19.80
2019-03-21T10:38:55.233Z,19.60
2019-03-21T10:41:21.428Z,19.00
2019-03-21T10:43:48.700Z,18.90
2019-03-21T10:46:14.878Z,20.30
2019-03-21T10:48:41.998Z,20.40
2019-03-21T10:51:08.199Z,19.80
2019-03-21T10:53:34.382Z,19.70
2019-03-21T10:56:00.565Z,19.00
2019-03-21T10:58:26.731Z,19.90
2019-03-21T11:00:52.931Z,18.80
2019-03-21T11:03:19.152Z,19.60
2019-03-21T11:05:45.440Z,19.10
2019-03-21T11:08:11.621Z,18.90
2019-03-21T11:10:37.846Z,18.90
2019-03-21T11:13:04.835Z,18.80
2019-03-21T11:15:31.212Z,19.60
2019-03-21T11:17:57.594Z,20.30
2019-03-21T11:20:37.497Z,19.80
2019-03-21T11:23:04.778Z,19.60
2019-03-21T11:25:32.393Z,19.20
2019-03-21T11:27:58.946Z,19.00
2019-03-21T11:30:30.433Z,18.50
2019-03-21T11:32:56.594Z,18.30
2019-03-21T11:35:23.157Z,19.00
2019-03-21T11:37:49.345Z,19.30
2019-03-21T11:40:15.586Z,19.30
2019-03-21T11:42:41.755Z,20.10
2019-03-21T11:45:08.159Z,20.60
2019-03-21T11:47:41.698Z,19.00
2019-03-21T11:50:04.627Z,20.20
2019-03-21T11:52:30.819Z,19.60
2019-03-21T11:54:57.004Z,18.90
2019-03-21T11:57:23.226Z,18.60
2019-03-21T11:59:51.945Z,18.10
2019-03-21T12:02:26.771Z,18.10
2019-03-21T12:04:45.572Z,17.70
2019-03-21T12:07:11.725Z,15.60
2019-03-21T12:09:37.928Z,14.10
2019-03-21T12:12:04.124Z,13.10
2019-03-21T12:14:30.319Z,13.20
2019-03-21T12:16:56.699Z,12.80
2019-03-21T12:19:23.912Z,12.40
2019-03-21T12:21:50.090Z,12.40
2019-03-21T12:24:18.690Z,12.60
2019-03-21T12:26:44.878Z,12.60
2019-03-21T12:29:11.127Z,12.70
2019-03-21T12:31:37.631Z,12.70
2019-03-21T12:34:03.808Z,12.70
2019-03-21T12:36:43.581Z,12.60
2019-03-21T12:39:10.883Z,12.50
2019-03-21T12:41:37.060Z,12.20
2019-03-21T12:44:09.257Z,12.30
2019-03-21T12:46:37.564Z,11.90
2019-03-21T12:49:06.313Z,12.20
2019-03-21T12:51:32.663Z,12.30
2019-03-21T12:53:58.929Z,11.90
2019-03-21T12:56:31.404Z,12.00
2019-03-21T12:59:02.690Z,11.90
2019-03-21T13:01:32.162Z,12.10
2019-03-21T13:04:09.681Z,12.30
2019-03-21T13:06:36.209Z,12.60
2019-03-21T13:09:05.763Z,12.50
2019-03-21T13:11:34.028Z,12.40
2019-03-21T13:14:02.452Z,12.40
2019-03-21T13:16:28.656Z,12.60
2019-03-21T13:18:54.874Z,12.70
2019-03-21T13:21:21.100Z,12.60
2019-03-21T13:23:47.301Z,12.30
2019-03-21T13:26:13.464Z,12.20
2019-03-21T13:28:39.709Z,12.10
2019-03-21T13:31:06.188Z,12.30
2019-03-21T13:33:32.381Z,12.30
2019-03-21T13:35:58.886Z,12.40
2019-03-21T13:38:25.080Z,12.30
2019-03-21T13:40:51.277Z,12.20
2019-03-21T13:43:17.448Z,12.30
2019-03-21T13:45:43.641Z,12.40
2019-03-21T13:48:09.985Z,12.40
2019-03-21T13:50:36.377Z,12.50
2019-03-21T13:53:05.252Z,12.50
2019-03-21T13:55:31.106Z,12.20
2019-03-21T13:57:57.273Z,12.30
2019-03-21T14:00:24.456Z,12.40
2019-03-21T14:02:50.616Z,12.30
2019-03-21T14:05:38.600Z,12.40
2019-03-21T14:08:04.775Z,12.50
2019-03-21T14:10:32.325Z,12.50
2019-03-21T14:12:58.605Z,12.40
2019-03-21T14:15:24.798Z,12.40
2019-03-21T14:17:50.958Z,12.40
2019-03-21T14:20:17.129Z,12.60
2019-03-21T14:22:43.343Z,12.70
2019-03-21T14:25:10.457Z,12.80
2019-03-21T14:27:36.633Z,12.60
2019-03-21T14:30:05.016Z,12.50
2019-03-21T14:32:31.537Z,12.40
2019-03-21T14:34:57.716Z,12.30
2019-03-21T14:37:23.904Z,12.50
2019-03-21T14:39:50.065Z,12.50
2019-03-21T14:42:16.247Z,12.40
2019-03-21T14:44:42.410Z,12.40
2019-03-21T14:47:08.952Z,12.40
2019-03-21T14:49:35.595Z,12.60
2019-03-21T14:52:01.772Z,12.60
2019-03-21T14:54:27.942Z,12.70
2019-03-21T14:56:54.162Z,12.70
2019-03-21T14:59:20.352Z,13.00
2019-03-21T15:01:46.521Z,12.80
2019-03-21T15:04:12.680Z,12.60
2019-03-21T15:06:38.876Z,12.60
2019-03-21T15:09:06.036Z,12.40
2019-03-21T15:11:32.708Z,12.50
2019-03-21T15:13:58.969Z,12.40
2019-03-21T15:16:25.143Z,12.50
2019-03-21T15:18:51.336Z,12.50
2019-03-21T15:21:17.506Z,12.50
2019-03-21T15:23:43.890Z,12.50
2019-03-21T15:26:10.062Z,12.60
2019-03-21T15:28:36.263Z,12.50
2019-03-21T15:31:02.565Z,12.30
2019-03-21T15:33:28.760Z,12.30
2019-03-21T15:35:54.958Z,12.30
2019-03-21T15:38:21.148Z,12.30
2019-03-21T15:40:47.444Z,12.30
2019-03-21T15:43:15.541Z,12.40
2019-03-21T15:45:41.725Z,12.30
2019-03-21T15:48:08.460Z,12.20
2019-03-21T15:50:37.671Z,12.30
2019-03-21T15:53:04.737Z,12.20
2019-03-21T15:55:30.924Z,12.10
2019-03-21T15:57:57.172Z,12.10
2019-03-21T16:00:36.334Z,12.10
2019-03-21T16:03:04.731Z,12.00
2019-03-21T16:05:33.069Z,12.10
2019-03-21T16:07:59.529Z,12.10
2019-03-21T16:10:25.712Z,12.10
2019-03-21T16:12:51.896Z,12.00
2019-03-21T16:15:18.168Z,12.00
2019-03-21T16:17:45.972Z,12.00
2019-03-21T16:20:12.200Z,11.90
2019-03-21T16:22:38.644Z,11.90
2019-03-21T16:25:06.538Z,11.80
2019-03-21T16:27:32.920Z,11.80
2019-03-21T16:29:59.120Z,11.60
2019-03-21T16:32:25.289Z,11.60
2019-03-21T16:34:51.466Z,11.60
2019-03-21T16:37:17.669Z,11.60
2019-03-21T16:39:43.869Z,11.50
2019-03-21T16:42:10.126Z,11.50
2019-03-21T16:44:36.341Z,11.40
2019-03-21T16:47:02.643Z,11.40
2019-03-21T16:49:29.868Z,11.40
2019-03-21T16:51:57.993Z,11.30
2019-03-21T16:54:24.151Z,11.30
2019-03-21T16:56:50.353Z,11.20
2019-03-21T16:59:16.512Z,11.10
2019-03-21T17:01:42.973Z,11.00
2019-03-21T17:04:09.259Z,11.00
2019-03-21T17:06:35.437Z,10.90
2019-03-21T17:09:01.630Z,10.80
2019-03-21T17:11:28.502Z,10.70
2019-03-21T17:13:54.711Z,10.70
2019-03-21T17:16:21.026Z,10.70
2019-03-21T17:18:48.338Z,10.60
2019-03-21T17:21:14.599Z,10.50
2019-03-21T17:23:43.825Z,10.40
2019-03-21T17:26:15.740Z,10.30
2019-03-21T17:28:40.927Z,10.20
2019-03-21T17:31:07.189Z,10.10
2019-03-21T17:33:33.761Z,10.00
2019-03-21T17:35:59.956Z,9.90
2019-03-21T17:38:26.173Z,9.80
2019-03-21T17:40:52.338Z,9.80
2019-03-21T17:43:18.506Z,9.70
2019-03-21T17:45:44.700Z,9.70
2019-03-21T17:48:10.870Z,9.70
2019-03-21T17:50:39.856Z,9.60
2019-03-21T17:53:06.041Z,9.50
2019-03-21T17:55:32.514Z,9.40
2019-03-21T17:57:58.864Z,9.30
2019-03-21T18:00:29.717Z,9.20
2019-03-21T18:02:56.339Z,9.10
2019-03-21T18:05:22.595Z,9.10
2019-03-21T18:07:48.791Z,9.10
2019-03-21T18:10:29.685Z,9.00
2019-03-21T18:12:56.117Z,9.00
2019-03-21T18:15:22.399Z,8.90
2019-03-21T18:17:49.684Z,8.90
2019-03-21T18:20:15.925Z,8.80
2019-03-21T18:22:42.152Z,8.70
2019-03-21T18:25:08.433Z,8.60
2019-03-21T18:27:34.596Z,8.60
2019-03-21T18:30:04.897Z,8.60
2019-03-21T18:32:31.302Z,8.60
2019-03-21T18:34:57.488Z,8.50
2019-03-21T18:37:23.654Z,8.50
2019-03-21T18:39:49.846Z,8.40
2019-03-21T18:42:16.056Z,8.30
2019-03-21T18:44:42.242Z,8.30
2019-03-21T18:47:08.457Z,8.10
2019-03-21T18:49:34.633Z,8.00
2019-03-21T18:52:00.893Z,8.00
2019-03-21T18:54:27.093Z,8.00
2019-03-21T18:56:53.280Z,8.00
2019-03-21T18:59:19.468Z,8.00
2019-03-21T19:01:57.665Z,8.00
2019-03-21T19:04:14.088Z,7.90
2019-03-21T19:06:40.279Z,7.90
2019-03-21T19:09:06.476Z,7.90
2019-03-21T19:11:32.912Z,7.80
2019-03-21T19:13:59.196Z,7.70
2019-03-21T19:16:25.372Z,7.70
2019-03-21T19:18:51.543Z,7.60
2019-03-21T19:21:17.827Z,7.60
2019-03-21T19:23:44.086Z,7.60
2019-03-21T19:26:10.264Z,7.50
2019-03-21T19:28:36.466Z,7.40
2019-03-21T19:31:03.066Z,7.40
2019-03-21T19:33:32.089Z,7.20
2019-03-21T19:35:58.413Z,7.20
2019-03-21T19:38:24.629Z,7.00
2019-03-21T19:40:50.948Z,6.90
2019-03-21T19:43:17.456Z,6.90
2019-03-21T19:45:43.741Z,6.60
2019-03-21T19:48:10.104Z,6.50
2019-03-21T19:50:36.408Z,6.30
2019-03-21T19:53:02.805Z,6.20
2019-03-21T19:55:32.195Z,6.00
2019-03-21T19:57:58.609Z,6.00
2019-03-21T20:00:24.782Z,6.10
2019-03-21T20:02:51.164Z,6.10
2019-03-21T20:05:17.745Z,6.00
2019-03-21T20:07:44.109Z,5.80
2019-03-21T20:10:12.752Z,5.60
2019-03-21T20:12:38.979Z,5.30
2019-03-21T20:15:07.691Z,5.10
2019-03-21T20:17:34.301Z,5.10
2019-03-21T20:20:00.548Z,5.00
2019-03-21T20:22:26.731Z,4.90
2019-03-21T20:24:52.914Z,5.00
2019-03-21T20:27:19.199Z,5.00
2019-03-21T20:29:45.489Z,5.00
2019-03-21T20:32:20.196Z,5.00
2019-03-21T20:34:39.937Z,4.80
2019-03-21T20:37:06.104Z,4.60
2019-03-21T20:39:32.350Z,4.50
2019-03-21T20:41:58.514Z,4.40
2019-03-21T20:44:24.701Z,4.30
2019-03-21T20:46:50.883Z,4.30
2019-03-21T20:49:17.066Z,4.20
2019-03-21T20:51:43.238Z,4.20
2019-03-21T20:54:09.417Z,4.00
2019-03-21T20:56:35.592Z,3.80
2019-03-21T20:59:01.769Z,3.90
2019-03-21T21:01:28.044Z,3.80
2019-03-21T21:03:54.261Z,3.60
2019-03-21T21:06:20.420Z,3.50
2019-03-21T21:08:46.686Z,3.30
2019-03-21T21:11:12.883Z,3.20
2019-03-21T21:13:39.144Z,3.20
2019-03-21T21:16:05.320Z,3.00
2019-03-21T21:18:31.540Z,2.90
2019-03-21T21:20:58.721Z,2.80
2019-03-21T21:23:24.880Z,2.70
2019-03-21T21:25:51.088Z,2.70
2019-03-21T21:28:17.264Z,2.60
2019-03-21T21:30:43.472Z,2.50
2019-03-21T21:33:09.732Z,2.60
2019-03-21T21:35:36.000Z,2.70
2019-03-21T21:38:02.260Z,2.80
2019-03-21T21:40:32.651Z,2.70
2019-03-21T21:42:59.100Z,2.50
2019-03-21T21:45:25.260Z,2.40
2019-03-21T21:47:51.459Z,2.20
2019-03-21T21:50:17.785Z,2.20
2019-03-21T21:52:44.062Z,2.10
2019-03-21T21:55:10.665Z,2.10
2019-03-21T21:57:37.842Z,2.20
2019-03-21T22:00:06.928Z,2.20
2019-03-21T22:02:33.204Z,2.20
2019-03-21T22:05:00.511Z,2.10
2019-03-21T22:07:27.073Z,2.10
2019-03-21T22:09:53.261Z,1.90
2019-03-21T22:12:20.448Z,1.90
2019-03-21T22:14:46.946Z,1.80
2019-03-21T22:17:13.103Z,1.90
2019-03-21T22:19:39.303Z,1.70
2019-03-21T22:22:05.484Z,1.50
2019-03-21T22:24:32.597Z,1.50
2019-03-21T22:26:58.784Z,1.40
2019-03-21T22:29:24.968Z,1.40
2019-03-21T22:31:51.164Z,1.50
2019-03-21T22:34:19.038Z,1.60
2019-03-21T22:36:49.631Z,1.50
2019-03-21T22:39:13.532Z,1.40
2019-03-21T22:41:39.725Z,1.20
2019-03-21T22:44:05.982Z,1.20
2019-03-21T22:46:32.166Z,1.20
2019-03-21T22:48:58.333Z,1.10
2019-03-21T22:51:24.506Z,1.20
2019-03-21T22:53:50.664Z,1.20
2019-03-21T22:56:16.847Z,1.10
2019-03-21T22:58:43.012Z,1.10
2019-03-21T23:01:09.429Z,1.00
2019-03-21T23:03:36.688Z,0.90
2019-03-21T23:06:02.872Z,0.90
2019-03-21T23:08:29.540Z,0.90
2019-03-21T23:10:56.933Z,1.00
2019-03-21T23:13:23.102Z,1.10
2019-03-21T23:15:49.280Z,1.20
2019-03-21T23:18:15.474Z,1.20
2019-03-21T23:20:41.624Z,1.20
2019-03-21T23:23:09.557Z,1.10
2019-03-21T23:25:35.985Z,1.20
2019-03-21T23:28:02.335Z,1.20
2019-03-21T23:30:28.544Z,1.10
2019-03-21T23:32:54.828Z,1.00
2019-03-21T23:35:20.986Z,1.00
2019-03-21T23:37:47.172Z,0.90
2019-03-21T23:40:14.457Z,0.90
2019-03-21T23:42:40.645Z,0.80
2019-03-21T23:45:08.507Z,0.70
2019-03-21T23:47:34.688Z,0.70
2019-03-21T23:50:00.989Z,0.70
2019-03-21T23:52:27.193Z,0.60
2019-03-21T23:54:53.354Z,0.60
2019-03-21T23:57:19.537Z,0.60
2019-03-21T23:59:45.697Z,0.50
